Time;durP1;ratioP1;P1;durP2;ratioP2;P2;SDS_P1;SDS_P2;PMS_P1;PMS_P2;Temp;Humidity;BMP_temperature;BMP_pressure;BME280_temperature;BME280_humidity;BME280_pressure;Samples;Min_cycle;Max_cycle;Signal;HPM_P1;HPM_P2
2022/06/21 00:00:14;;;;;;;24.83;10.02;;;23.50;99.90;;;;;;5000582;28;20193;-75
2022/06/21 00:02:40;;;;;;;17.10;9.25;;;23.50;99.90;;;;;;5019656;28;20037;-75
2022/06/21 00:05:27;;;;;;;22.13;9.77;;;23.50;99.90;;;;;;5022075;28;20025;-75
2022/06/21 00:07:53;;;;;;;21.55;10.00;;;23.50;99.90;;;;;;5012881;28;20037;-75
2022/06/21 00:10:20;;;;;;;26.35;9.93;;;23.50;99.90;;;;;;5012877;28;20049;-75
2022/06/21 00:12:46;;;;;;;18.23;8.25;;;23.50;99.90;;;;;;5012803;28;20084;-75
2022/06/21 00:15:12;;;;;;;19.38;9.30;;;23.50;99.90;;;;;;5015669;28;20067;-74
2022/06/21 00:17:41;;;;;;;21.33;8.23;;;23.60;99.90;;;;;;5032688;28;20026;-75
2022/06/21 00:20:10;;;;;;;21.10;9.02;;;23.60;99.90;;;;;;5035921;28;20021;-75
2022/06/21 00:22:36;;;;;;;20.52;9.02;;;23.60;99.90;;;;;;5018827;28;20025;-75
2022/06/21 00:25:14;;;;;;;22.17;9.18;;;23.50;99.90;;;;;;5000046;28;20022;-75
2022/06/21 00:27:40;;;;;;;22.58;8.40;;;23.50;99.90;;;;;;5019074;28;20057;-75
2022/06/21 00:30:06;;;;;;;20.73;9.13;;;23.50;99.90;;;;;;5019948;28;20099;-75
2022/06/21 00:32:32;;;;;;;24.73;8.25;;;23.50;99.90;;;;;;5021123;28;20025;-75
2022/06/21 00:34:58;;;;;;;20.17;8.55;;;23.50;99.90;;;;;;5021908;28;20508;-74
2022/06/21 00:37:24;;;;;;;17.10;8.63;;;23.50;99.90;;;;;;5028907;28;20052;-75
2022/06/21 00:39:51;;;;;;;22.25;8.43;;;23.50;99.90;;;;;;5023499;28;20034;-75
2022/06/21 00:42:28;;;;;;;22.90;8.75;;;23.50;99.90;;;;;;5012372;28;20436;-75
2022/06/21 00:45:00;;;;;;;24.25;9.43;;;23.50;99.90;;;;;;5008664;28;20072;-75
2022/06/21 00:47:42;;;;;;;22.70;8.25;;;23.50;99.90;;;;;;5014677;28;20029;-75
2022/06/21 00:50:23;;;;;;;18.42;9.65;;;23.50;99.90;;;;;;5031397;28;20196;-75
2022/06/21 00:52:52;;;;;;;;;;;23.50;99.90;;;;;;5015698;28;20029;-75
2022/06/21 00:55:40;;;;;;;15.30;7.88;;;23.50;99.90;;;;;;5023436;28;19905;-75
2022/06/21 00:58:11;;;;;;;19.63;8.48;;;23.40;99.90;;;;;;5019379;28;20030;-74
2022/06/21 01:00:39;;;;;;;16.85;8.82;;;23.40;99.90;;;;;;5021375;28;20382;-75
2022/06/21 01:03:16;;;;;;;23.65;9.70;;;23.40;99.90;;;;;;5024271;28;20025;-75
2022/06/21 01:05:44;;;;;;;18.70;9.02;;;23.40;99.90;;;;;;5010559;28;20389;-75
2022/06/21 01:08:15;;;;;;;15.57;9.05;;;23.40;99.90;;;;;;5033840;28;20078;-76
2022/06/21 01:10:41;;;;;;;19.48;8.93;;;23.30;99.90;;;;;;5012372;28;20132;-74
2022/06/21 01:13:16;;;;;;;17.35;8.90;;;23.30;99.90;;;;;;5026371;28;20033;-74
2022/06/21 01:15:45;;;;;;;19.15;8.80;;;23.30;99.90;;;;;;5033813;28;20064;-75
2022/06/21 01:18:14;;;;;;;26.58;9.02;;;23.30;99.90;;;;;;5020067;28;20021;-75
2022/06/21 01:20:46;;;;;;;17.92;8.30;;;23.30;99.90;;;;;;5020025;28;20117;-75
2022/06/21 01:23:42;;;;;;;21.92;9.20;;;23.30;99.90;;;;;;5012639;28;20029;-75
2022/06/21 01:26:33;;;;;;;16.17;9.00;;;23.30;99.90;;;;;;5020695;28;20133;-74
2022/06/21 01:29:01;;;;;;;16.77;9.60;;;23.30;99.90;;;;;;5024322;28;20030;-75
2022/06/21 01:31:29;;;;;;;38.83;9.65;;;23.30;99.90;;;;;;5023088;28;20034;-75
2022/06/21 01:33:55;;;;;;;24.90;9.85;;;23.30;99.90;;;;;;5010065;28;20029;-75
2022/06/21 01:36:29;;;;;;;20.10;8.90;;;23.30;99.90;;;;;;5025030;28;20021;-75
2022/06/21 01:39:14;;;;;;;24.17;10.18;;;23.40;99.90;;;;;;5030769;28;20022;-75
2022/06/21 01:41:48;;;;;;;22.65;9.73;;;23.30;99.90;;;;;;5026999;28;20021;-75
2022/06/21 01:44:27;;;;;;;24.85;8.88;;;23.30;99.90;;;;;;5014935;28;20379;-74
2022/06/21 01:46:54;;;;;;;18.20;6.47;;;23.20;99.90;;;;;;5031886;28;20060;-75
2022/06/21 01:49:24;;;;;;;21.77;7.47;;;23.00;99.90;;;;;;5034444;28;20057;-75
2022/06/21 01:52:02;;;;;;;17.85;7.40;;;23.00;99.90;;;;;;5033699;28;20038;-75
2022/06/21 01:54:33;;;;;;;15.40;6.65;;;22.80;99.90;;;;;;5035829;28;20029;-74
2022/06/21 01:56:59;;;;;;;15.70;6.10;;;22.80;99.90;;;;;;5007689;28;20185;-73
2022/06/21 01:59:30;;;;;;;21.70;7.40;;;22.70;99.90;;;;;;5038156;28;20022;-75
2022/06/21 02:02:19;;;;;;;16.45;7.07;;;22.60;99.90;;;;;;5002184;28;20117;-74
2022/06/21 02:05:12;;;;;;;19.35;6.93;;;22.40;99.90;;;;;;5022335;28;20053;-74
2022/06/21 02:07:46;;;;;;;19.65;6.03;;;22.40;99.90;;;;;;5004604;28;20025;-74
2022/06/21 02:10:41;;;;;;;25.08;6.47;;;22.30;99.90;;;;;;5031984;28;20462;-74
2022/06/21 02:13:14;;;;;;;18.33;5.88;;;22.20;99.90;;;;;;5010839;28;20034;-74
2022/06/21 02:16:07;;;;;;;19.65;5.80;;;22.10;99.90;;;;;;5030795;28;20025;-74
2022/06/21 02:18:37;;;;;;;18.35;5.47;;;21.90;99.90;;;;;;5004599;28;20037;-73
2022/06/21 02:21:16;;;;;;;18.33;5.57;;;21.80;99.90;;;;;;5016351;28;20061;-74
2022/06/21 02:23:42;;;;;;;22.20;6.30;;;21.70;99.90;;;;;;5019447;28;20032;-73
2022/06/21 02:26:11;;;;;;;12.88;4.88;;;21.60;99.90;;;;;;5031938;28;20430;-73
2022/06/21 02:28:38;;;;;;;10.60;4.55;;;21.50;99.90;;;;;;5019487;28;20483;-74
2022/06/21 02:31:04;;;;;;;11.60;4.88;;;21.30;99.90;;;;;;5021578;28;20010;-74
2022/06/21 02:33:33;;;;;;;18.67;4.88;;;21.30;99.90;;;;;;5003279;28;20032;-73
2022/06/21 02:36:07;;;;;;;13.48;6.18;;;21.20;99.90;;;;;;5022286;28;20029;-73
2022/06/21 02:38:39;;;;;;;19.63;5.85;;;21.20;99.90;;;;;;5025169;28;20386;-73
2022/06/21 02:41:24;;;;;;;15.20;5.85;;;21.20;99.90;;;;;;5010651;28;20478;-74
2022/06/21 02:44:06;;;;;;;15.85;5.93;;;21.20;99.90;;;;;;5030761;28;20085;-73
2022/06/21 02:46:38;;;;;;;14.80;5.28;;;21.10;99.90;;;;;;5028334;28;20109;-73
2022/06/21 02:49:12;;;;;;;16.52;4.95;;;21.10;99.90;;;;;;5015986;28;20048;-74
2022/06/21 02:51:45;;;;;;;15.25;5.53;;;21.10;99.90;;;;;;5031636;28;20151;-73
2022/06/21 02:54:17;;;;;;;10.80;5.13;;;21.10;99.90;;;;;;5017826;28;20028;-73
2022/06/21 02:56:46;;;;;;;14.73;5.05;;;21.10;99.90;;;;;;5017354;28;20508;-73
2022/06/21 02:59:13;;;;;;;12.43;5.20;;;21.00;99.90;;;;;;5037263;28;20032;-73
2022/06/21 03:01:56;;;;;;;10.95;5.05;;;21.10;99.90;;;;;;5003169;28;20025;-73
2022/06/21 03:04:40;;;;;;;17.50;5.50;;;21.10;99.90;;;;;;5002552;28;20117;-73
2022/06/21 03:07:07;;;;;;;15.02;5.78;;;21.10;99.90;;;;;;5031467;28;20039;-73
2022/06/21 03:09:34;;;;;;;14.48;4.97;;;21.10;99.90;;;;;;5010823;28;20025;-73
2022/06/21 03:12:04;;;;;;;16.15;5.70;;;21.10;99.90;;;;;;5013271;28;20029;-73
2022/06/21 03:14:33;;;;;;;17.80;6.00;;;21.10;99.90;;;;;;5030949;28;20025;-74
2022/06/21 03:17:01;;;;;;;12.55;5.10;;;21.10;99.90;;;;;;5034100;28;20021;-73
2022/06/21 03:19:40;;;;;;;17.92;6.00;;;21.10;99.90;;;;;;5032918;28;20045;-74
2022/06/21 03:22:20;;;;;;;15.50;6.10;;;21.10;99.90;;;;;;5018043;28;20044;-73
2022/06/21 03:24:49;;;;;;;15.07;5.70;;;21.10;99.90;;;;;;5028956;28;20053;-73
2022/06/21 03:27:26;;;;;;;13.43;5.53;;;21.10;99.90;;;;;;5018937;28;20483;-73
2022/06/21 03:29:53;;;;;;;15.02;4.93;;;21.10;99.90;;;;;;5018943;28;20438;-74
2022/06/21 03:32:19;;;;;;;16.70;5.55;;;21.00;99.90;;;;;;5005023;28;20029;-73
2022/06/21 03:34:47;;;;;;;26.88;6.18;;;21.10;99.90;;;;;;5003373;28;20022;-73
2022/06/21 03:37:13;;;;;;;31.70;6.13;;;21.00;99.90;;;;;;5025400;28;20057;-73
2022/06/21 03:42:28;;;;;;;12.93;5.05;;;21.00;99.90;;;;;;5024503;28;20079;-73
2022/06/21 03:45:12;;;;;;;13.18;5.97;;;21.10;99.90;;;;;;5026769;28;20105;-73
2022/06/21 03:47:47;;;;;;;15.30;5.82;;;21.00;99.90;;;;;;5014646;28;20044;-73
2022/06/21 03:50:19;;;;;;;10.70;4.95;;;21.00;99.90;;;;;;5032808;28;20053;-74
2022/06/21 03:52:48;;;;;;;15.35;5.80;;;21.00;99.90;;;;;;5016651;28;20048;-73
2022/06/21 03:55:50;;;;;;;16.52;5.22;;;21.00;99.90;;;;;;5035804;28;20021;-72
2022/06/21 03:58:41;;;;;;;14.75;5.03;;;21.00;99.90;;;;;;5019742;28;20434;-72
2022/06/21 04:01:16;;;;;;;17.80;5.05;;;21.00;99.90;;;;;;5019707;28;20060;-72
2022/06/21 04:03:44;;;;;;;26.55;5.80;;;21.00;99.90;;;;;;5019803;28;20022;-72
2022/06/21 04:06:24;;;;;;;19.30;4.63;;;21.00;99.90;;;;;;5011309;28;20021;-72
2022/06/21 04:09:03;;;;;;;19.95;6.95;;;21.00;99.90;;;;;;5010795;28;20014;-73
2022/06/21 04:11:35;;;;;;;14.95;5.50;;;21.00;99.90;;;;;;5005736;28;20034;-73
2022/06/21 04:14:26;;;;;;;7.88;4.38;;;21.00;99.90;;;;;;5030052;28;20022;-72
2022/06/21 04:16:54;;;;;;;;;;;21.00;99.90;;;;;;5016999;28;20025;-73
2022/06/21 04:19:28;;;;;;;20.40;5.95;;;20.90;99.90;;;;;;5016461;28;20365;-72
2022/06/21 04:21:58;;;;;;;13.90;6.03;;;20.80;99.90;;;;;;5036157;28;20032;-73
2022/06/21 04:24:23;;;;;;;14.77;5.33;;;20.80;99.90;;;;;;5000143;28;20030;-72
2022/06/21 04:26:56;;;;;;;14.70;6.07;;;20.80;99.90;;;;;;5000761;28;20045;-73
2022/06/21 04:29:28;;;;;;;23.75;5.80;;;20.80;99.90;;;;;;5001685;28;20162;-73
2022/06/21 04:32:12;;;;;;;16.17;5.00;;;20.80;99.90;;;;;;5023899;28;20034;-72
2022/06/21 04:34:55;;;;;;;15.93;5.18;;;20.80;99.90;;;;;;5025418;28;20017;-74
2022/06/21 04:37:40;;;;;;;24.90;6.60;;;20.70;99.90;;;;;;5031155;28;20017;-73
2022/06/21 04:40:22;;;;;;;23.92;6.78;;;20.70;99.90;;;;;;5010268;28;20072;-73
2022/06/21 04:42:54;;;;;;;19.45;5.55;;;20.60;99.90;;;;;;5031511;28;20025;-74
2022/06/21 04:45:20;;;;;;;17.42;7.15;;;20.70;99.90;;;;;;5033227;28;20056;-74
2022/06/21 04:48:04;;;;;;;22.45;6.65;;;20.60;99.90;;;;;;5016804;28;20463;-73
2022/06/21 04:50:40;;;;;;;22.88;6.40;;;20.60;99.90;;;;;;5009800;28;20092;-73
2022/06/21 04:53:19;;;;;;;15.25;5.70;;;20.60;99.90;;;;;;5018603;28;20026;-72
2022/06/21 04:56:06;;;;;;;29.35;5.80;;;20.70;99.90;;;;;;5021221;28;20057;-72
2022/06/21 04:58:31;;;;;;;19.05;6.07;;;20.70;99.90;;;;;;5020890;28;20022;-73
2022/06/21 05:00:59;;;;;;;14.45;5.88;;;20.70;99.90;;;;;;5021132;28;20056;-73
2022/06/21 05:03:43;;;;;;;16.27;5.40;;;20.60;99.90;;;;;;5006605;28;20052;-74
2022/06/21 05:06:13;;;;;;;19.85;6.20;;;20.70;99.90;;;;;;5031819;28;20048;-73
2022/06/21 05:08:40;;;;;;;17.45;5.53;;;20.60;99.90;;;;;;5032922;28;20390;-74
2022/06/21 05:11:09;;;;;;;15.70;5.88;;;20.60;99.90;;;;;;5032330;28;20029;-74
2022/06/21 05:13:38;;;;;;;21.02;5.97;;;20.70;99.90;;;;;;5018574;28;20033;-74
2022/06/21 05:16:22;;;;;;;14.55;4.78;;;20.60;99.90;;;;;;5035352;28;20025;-74
2022/06/21 05:18:56;;;;;;;19.27;5.90;;;20.60;99.90;;;;;;5037288;28;20029;-73
2022/06/21 05:21:34;;;;;;;15.00;5.65;;;20.60;99.90;;;;;;5039630;28;20021;-74
2022/06/21 05:24:01;;;;;;;21.38;5.63;;;20.50;99.90;;;;;;5006521;28;20041;-74
2022/06/21 05:27:05;;;;;;;25.50;7.28;;;20.50;99.90;;;;;;5021125;28;20478;-74
2022/06/21 05:30:05;;;;;;;24.27;5.93;;;20.50;99.90;;;;;;5021947;28;20026;-75
2022/06/21 05:32:40;;;;;;;19.53;6.53;;;20.50;99.90;;;;;;5021382;28;20017;-74
2022/06/21 05:35:14;;;;;;;24.92;6.55;;;20.40;99.90;;;;;;5037278;28;20413;-74
2022/06/21 05:38:00;;;;;;;25.88;6.88;;;20.40;99.90;;;;;;5022872;28;20072;-74
2022/06/21 05:40:47;;;;;;;17.55;6.28;;;20.40;99.90;;;;;;5034026;28;20022;-74
2022/06/21 05:43:20;;;;;;;23.63;5.90;;;20.40;99.90;;;;;;5016624;28;20441;-73
2022/06/21 05:46:08;;;;;;;18.88;5.75;;;20.40;99.90;;;;;;5037716;28;20026;-74
2022/06/21 05:48:36;;;;;;;20.23;5.80;;;20.40;99.90;;;;;;5034437;28;20465;-74
2022/06/21 05:51:06;;;;;;;21.35;5.68;;;20.40;99.90;;;;;;5002327;28;20022;-74
2022/06/21 05:53:39;;;;;;;14.88;6.03;;;20.40;99.90;;;;;;5022879;28;20494;-74
2022/06/21 05:56:09;;;;;;;21.65;5.95;;;20.50;99.90;;;;;;5004127;28;20082;-74
2022/06/21 05:58:42;;;;;;;17.27;6.18;;;20.50;99.90;;;;;;5023072;28;20053;-75
2022/06/21 06:01:27;;;;;;;16.45;5.72;;;20.60;99.90;;;;;;5024999;28;20072;-74
2022/06/21 06:04:10;;;;;;;19.55;6.95;;;20.50;99.90;;;;;;5012858;28;20025;-73
2022/06/21 06:06:40;;;;;;;20.40;5.93;;;20.50;99.90;;;;;;5015636;28;20021;-74
2022/06/21 06:09:14;;;;;;;22.77;6.15;;;20.50;99.90;;;;;;5011993;28;20478;-74
2022/06/21 06:11:58;;;;;;;26.80;6.65;;;20.60;99.90;;;;;;5018262;28;20397;-74
2022/06/21 06:14:29;;;;;;;22.38;6.30;;;20.70;99.90;;;;;;5034826;28;20021;-75
2022/06/21 06:16:57;;;;;;;20.58;7.32;;;20.60;99.90;;;;;;5018490;28;20022;-74
2022/06/21 06:19:47;;;;;;;22.25;6.18;;;20.60;99.90;;;;;;5037241;28;20036;-74
2022/06/21 06:22:25;;;;;;;16.70;6.78;;;20.60;99.90;;;;;;5027153;28;20025;-74
2022/06/21 06:24:59;;;;;;;18.63;6.78;;;20.60;99.90;;;;;;5029845;28;20025;-74
2022/06/21 06:27:37;;;;;;;20.25;7.30;;;20.70;99.90;;;;;;5018128;28;20379;-74
2022/06/21 06:30:06;;;;;;;27.80;7.43;;;20.70;99.90;;;;;;5031657;28;20052;-74
2022/06/21 06:33:01;;;;;;;23.08;7.50;;;20.70;99.90;;;;;;5007088;28;20029;-74
2022/06/21 06:35:27;;;;;;;21.55;6.88;;;20.60;99.90;;;;;;5026884;28;20037;-74
2022/06/21 06:37:53;;;;;;;22.95;7.88;;;20.60;99.90;;;;;;5019818;28;20025;-74
2022/06/21 06:40:30;;;;;;;23.00;7.10;;;20.60;99.90;;;;;;5037156;28;20026;-74
2022/06/21 06:43:05;;;;;;;19.13;7.20;;;20.70;99.90;;;;;;5009857;28;20034;-74
2022/06/21 06:45:40;;;;;;;14.60;6.93;;;20.70;99.90;;;;;;5033192;28;20018;-75
2022/06/21 06:48:16;;;;;;;20.48;7.55;;;20.80;99.90;;;;;;5003624;28;20026;-75
2022/06/21 06:51:06;;;;;;;19.85;8.48;;;20.70;99.90;;;;;;5023917;28;20037;-74
2022/06/21 06:53:40;;;;;;;32.28;8.75;;;20.70;99.90;;;;;;5027280;28;20032;-71
2022/06/21 06:56:16;;;;;;;24.27;7.43;;;20.70;99.90;;;;;;5024039;28;20022;-72
2022/06/21 06:58:51;;;;;;;17.55;6.70;;;20.80;99.90;;;;;;5007525;28;20541;-72
2022/06/21 07:01:38;;;;;;;23.17;7.65;;;20.90;99.90;;;;;;5028010;28;20091;-75
2022/06/21 07:04:06;;;;;;;25.23;8.32;;;21.00;99.90;;;;;;5030521;28;20021;-74
2022/06/21 07:06:35;;;;;;;20.42;6.68;;;21.00;99.90;;;;;;5015496;28;20029;-72
2022/06/21 07:09:16;;;;;;;22.02;7.32;;;21.00;99.90;;;;;;5033431;28;20022;-72
2022/06/21 07:11:42;;;;;;;26.00;8.95;;;21.00;99.90;;;;;;5007542;28;20462;-74
2022/06/21 07:14:24;;;;;;;20.20;7.03;;;21.10;99.90;;;;;;5017637;28;20029;-74
2022/06/21 07:17:09;;;;;;;20.98;6.63;;;21.10;99.90;;;;;;5025318;28;20033;-74
2022/06/21 07:19:35;;;;;;;23.85;7.57;;;21.20;99.90;;;;;;5032468;28;20018;-74
2022/06/21 07:22:01;;;;;;;22.42;7.25;;;21.20;99.90;;;;;;5021261;28;20013;-74
2022/06/21 07:24:28;;;;;;;23.80;7.65;;;21.30;99.90;;;;;;5026268;28;20036;-74
2022/06/21 07:27:01;;;;;;;25.73;8.57;;;21.30;99.90;;;;;;5005462;28;20045;-75
2022/06/21 07:29:41;;;;;;;19.48;7.55;;;21.30;99.90;;;;;;5006318;28;20436;-74
2022/06/21 07:32:21;;;;;;;27.17;7.90;;;21.40;99.90;;;;;;5026861;28;20082;-74
2022/06/21 07:34:54;;;;;;;18.65;7.25;;;21.40;99.90;;;;;;5030183;28;20029;-75
2022/06/21 07:37:47;;;;;;;20.83;7.72;;;21.40;99.90;;;;;;5014188;28;20120;-75
2022/06/21 07:40:28;;;;;;;19.73;9.73;;;21.50;99.90;;;;;;5013211;28;20022;-74
2022/06/21 07:43:20;;;;;;;19.45;8.40;;;21.50;99.90;;;;;;5017470;28;20026;-75
2022/06/21 07:45:54;;;;;;;15.57;6.95;;;21.60;99.90;;;;;;5025262;28;20036;-74
2022/06/21 07:48:23;;;;;;;30.77;8.15;;;21.50;99.90;;;;;;5034833;28;20416;-75
2022/06/21 07:50:52;;;;;;;20.27;6.97;;;21.60;99.90;;;;;;5000869;28;20033;-74
2022/06/21 07:53:27;;;;;;;22.85;7.10;;;21.70;99.90;;;;;;5020885;28;20517;-76
2022/06/21 07:56:06;;;;;;;23.27;7.68;;;21.80;99.90;;;;;;5019899;28;20010;-76
2022/06/21 07:58:32;;;;;;;23.77;8.07;;;21.90;99.90;;;;;;5006972;28;20033;-75
2022/06/21 08:06:41;;;;;;;22.90;7.18;;;22.10;99.90;;;;;;5033591;28;20121;-74
2022/06/21 08:09:30;;;;;;;16.35;7.15;;;22.00;99.90;;;;;;5029246;28;20018;-74
2022/06/21 08:12:01;;;;;;;24.55;8.23;;;22.10;99.90;;;;;;5029578;28;20028;-74
2022/06/21 08:14:34;;;;;;;30.02;8.50;;;22.10;99.90;;;;;;5014631;28;20026;-75
2022/06/21 08:17:13;;;;;;;20.52;7.93;;;22.20;99.90;;;;;;5019808;28;20095;-74
2022/06/21 08:19:56;;;;;;;27.17;8.25;;;22.30;99.90;;;;;;5017747;28;20478;-74
2022/06/21 08:22:38;;;;;;;22.08;8.05;;;22.30;99.90;;;;;;5005508;28;20029;-74
2022/06/21 08:25:42;;;;;;;29.15;11.93;;;22.40;99.90;;;;;;5023995;28;20577;-74
2022/06/21 08:28:28;;;;;;;29.95;9.23;;;22.20;99.90;;;;;;5023713;28;20556;-75
2022/06/21 08:30:57;;;;;;;23.60;7.45;;;22.50;99.90;;;;;;5030186;28;20033;-75
2022/06/21 08:33:43;;;;;;;32.92;8.88;;;22.60;99.90;;;;;;5011125;28;20072;-75
2022/06/21 08:36:29;;;;;;;15.90;6.97;;;22.50;99.90;;;;;;5010450;28;20025;-75
2022/06/21 08:39:08;;;;;;;24.20;7.75;;;22.60;99.90;;;;;;5033983;28;20040;-75
2022/06/21 08:42:11;;;;;;;28.08;9.82;;;22.60;99.90;;;;;;5035648;28;20025;-74
2022/06/21 08:48:44;;;;;;;23.17;6.90;;;22.70;99.90;;;;;;5020764;28;20509;-74
2022/06/21 08:51:56;;;;;;;25.80;10.30;;;22.50;99.90;;;;;;4990532;28;20133;-75
2022/06/21 08:54:31;;;;;;;32.17;9.07;;;22.40;99.90;;;;;;5002725;28;20049;-74
2022/06/21 08:57:11;;;;;;;20.70;8.80;;;22.30;99.90;;;;;;5024509;28;20021;-75
2022/06/21 09:00:05;;;;;;;25.17;8.70;;;22.30;99.90;;;;;;5027659;28;20022;-74
2022/06/21 09:02:40;;;;;;;21.20;8.85;;;22.20;99.90;;;;;;5026597;28;20033;-74
2022/06/21 09:05:37;;;;;;;28.85;8.93;;;22.20;99.90;;;;;;5027166;28;20018;-74
2022/06/21 09:08:17;;;;;;;22.92;9.15;;;22.20;99.90;;;;;;5033022;28;20044;-74
2022/06/21 09:11:01;;;;;;;28.30;8.93;;;22.30;99.90;;;;;;5013620;28;20021;-74
2022/06/21 09:13:54;;;;;;;26.98;8.68;;;22.50;99.90;;;;;;5018831;28;20060;-74
2022/06/21 09:16:25;;;;;;;26.70;8.43;;;22.80;99.90;;;;;;5012739;28;20042;-75
2022/06/21 09:19:24;;;;;;;23.80;8.85;;;22.90;99.90;;;;;;5020774;28;20076;-74
2022/06/21 09:22:16;;;;;;;36.13;9.15;;;23.20;99.90;;;;;;5024098;28;20026;-74
2022/06/21 09:24:55;;;;;;;28.77;8.52;;;23.30;99.90;;;;;;5007354;28;20050;-75
2022/06/21 09:27:31;;;;;;;22.58;8.18;;;23.30;99.90;;;;;;5030051;28;20029;-75
2022/06/21 09:30:12;;;;;;;28.50;9.30;;;23.50;99.90;;;;;;5011032;28;20022;-75
2022/06/21 09:32:37;;;;;;;;;;;23.70;99.90;;;;;;5027462;28;20030;-76
2022/06/21 09:35:06;;;;;;;21.63;8.60;;;23.80;99.90;;;;;;5013444;28;19906;-74
2022/06/21 09:38:21;;;;;;;25.52;8.63;;;23.80;99.90;;;;;;5036145;28;20028;-75
2022/06/21 09:41:16;;;;;;;24.30;9.20;;;23.70;99.90;;;;;;4983474;28;20440;-75
2022/06/21 09:44:12;;;;;;;28.45;9.02;;;23.60;99.90;;;;;;4997596;28;20053;-75
2022/06/21 09:46:49;;;;;;;29.20;9.32;;;23.40;99.90;;;;;;5018844;28;20037;-75
2022/06/21 09:49:29;;;;;;;28.90;9.25;;;23.60;99.90;;;;;;5002266;28;20096;-75
2022/06/21 09:52:13;;;;;;;25.75;8.88;;;23.60;99.90;;;;;;5022269;28;20022;-74
2022/06/21 09:54:49;;;;;;;25.00;9.80;;;23.70;99.90;;;;;;5022603;28;20041;-75
2022/06/21 09:57:47;;;;;;;24.58;8.52;;;23.70;99.90;;;;;;5009215;28;20021;-74
2022/06/21 10:00:33;;;;;;;30.73;9.57;;;23.80;99.90;;;;;;5020740;28;20021;-74
2022/06/21 10:03:15;;;;;;;23.30;8.88;;;23.70;99.90;;;;;;5017599;28;20124;-75
2022/06/21 10:06:06;;;;;;;27.80;9.35;;;23.60;99.90;;;;;;5018763;28;20029;-76
2022/06/21 10:09:06;;;;;;;20.58;8.07;;;23.40;99.90;;;;;;5029263;28;20394;-75
2022/06/21 10:11:49;;;;;;;27.38;8.00;;;23.40;99.90;;;;;;5007232;28;20025;-74
2022/06/21 10:14:22;;;;;;;18.00;8.30;;;23.40;99.90;;;;;;5033420;28;20025;-75
2022/06/21 10:17:11;;;;;;;23.00;9.10;;;23.50;99.90;;;;;;5034409;28;20018;-75
2022/06/21 10:19:57;;;;;;;22.85;8.55;;;23.70;99.90;;;;;;5035591;28;20022;-75
2022/06/21 10:22:50;;;;;;;19.35;8.57;;;24.10;99.90;;;;;;5017930;28;20025;-75
2022/06/21 10:25:48;;;;;;;23.65;9.68;;;24.40;99.90;;;;;;5037661;28;20029;-75
2022/06/21 10:28:32;;;;;;;28.13;9.80;;;24.40;99.90;;;;;;5000614;28;20105;-75
2022/06/21 10:31:07;;;;;;;28.60;9.30;;;25.00;99.90;;;;;;5023938;28;20104;-75
2022/06/21 10:33:54;;;;;;;22.92;8.60;;;25.30;99.90;;;;;;5027830;28;20048;-75
2022/06/21 10:36:49;;;;;;;21.02;9.35;;;25.20;99.90;;;;;;5022790;28;20498;-75
2022/06/21 10:39:24;;;;;;;20.25;8.43;;;25.50;99.90;;;;;;5023518;28;20033;-76
2022/06/21 10:45:26;;;;;;;24.67;9.05;;;25.80;99.90;;;;;;5027050;28;20037;-75
2022/06/21 10:47:58;;;;;;;20.90;8.60;;;25.70;99.90;;;;;;4983545;28;20033;-76
2022/06/21 10:50:49;;;;;;;16.55;7.50;;;25.80;99.90;;;;;;5131789;27;20371;-74
2022/06/21 10:53:34;;;;;;;23.40;8.75;;;25.60;99.90;;;;;;5125735;28;20024;-75
2022/06/21 11:02:42;;;;;;;22.92;7.78;;;26.10;99.90;;;;;;5095871;28;20085;-75
2022/06/21 11:05:25;;;;;;;30.42;9.30;;;26.20;99.90;;;;;;5100933;28;20023;-75
2022/06/21 11:08:30;;;;;;;24.73;9.35;;;26.50;99.90;;;;;;5104131;28;20024;-75
2022/06/21 11:11:06;;;;;;;19.25;7.38;;;26.30;99.90;;;;;;5056358;28;20455;-75
2022/06/21 11:14:00;;;;;;;20.20;8.02;;;26.60;99.90;;;;;;5103777;28;20043;-75
2022/06/21 11:16:33;;;;;;;20.08;8.05;;;26.70;99.90;;;;;;5135511;27;20034;-74
2022/06/21 11:19:25;;;;;;;24.30;8.18;;;27.00;99.90;;;;;;5137613;27;20027;-75
2022/06/21 11:22:24;;;;;;;16.67;7.35;;;27.60;99.90;;;;;;5107182;28;20040;-74
2022/06/21 11:24:59;;;;;;;19.90;7.68;;;27.60;99.90;;;;;;5103495;28;20024;-75
2022/06/21 11:27:45;;;;;;;16.27;7.00;;;27.70;99.90;;;;;;5109178;28;20020;-74
2022/06/21 11:30:26;;;;;;;20.45;7.18;;;27.70;99.90;;;;;;5097434;28;20142;-75
2022/06/21 11:33:02;;;;;;;;;;;27.70;99.90;;;;;;5106354;28;20074;-72
2022/06/21 11:35:42;;;;;;;26.02;8.10;;;27.90;99.90;;;;;;5095688;28;19904;-73
2022/06/21 11:38:46;;;;;;;19.10;7.55;;;28.10;99.90;;;;;;5129430;27;20036;-73
2022/06/21 11:42:08;;;;;;;21.35;7.15;;;28.00;99.90;;;;;;5130120;27;20050;-73
2022/06/21 11:44:52;;;;;;;23.20;7.82;;;28.10;99.90;;;;;;5098907;28;20055;-73
2022/06/21 11:47:56;;;;;;;20.05;7.32;;;28.40;99.90;;;;;;5099687;28;20028;-73
2022/06/21 11:50:25;;;;;;;20.80;7.95;;;28.40;99.90;;;;;;5106116;28;20040;-73
2022/06/21 11:53:15;;;;;;;22.55;7.10;;;28.10;99.90;;;;;;5102517;28;20103;-73
2022/06/21 11:56:02;;;;;;;17.88;7.03;;;28.20;99.90;;;;;;5102774;28;20027;-73
2022/06/21 11:58:40;;;;;;;23.85;8.13;;;28.70;99.90;;;;;;5111058;28;20058;-73
2022/06/21 12:01:11;;;;;;;12.30;5.85;;;28.30;99.90;;;;;;5100736;28;20032;-73
2022/06/21 12:03:42;;;;;;;19.55;7.35;;;28.50;99.90;;;;;;5092345;28;20033;-73
2022/06/21 12:06:17;;;;;;;22.15;7.53;;;28.50;99.90;;;;;;5086858;28;20098;-73
2022/06/21 12:09:01;;;;;;;22.67;7.35;;;28.50;99.90;;;;;;5093223;28;20532;-73
2022/06/21 12:11:53;;;;;;;22.27;7.60;;;28.30;99.90;;;;;;5096293;28;20027;-73
2022/06/21 12:14:33;;;;;;;14.27;6.28;;;28.10;99.90;;;;;;5096980;28;20027;-73
2022/06/21 12:17:28;;;;;;;19.67;7.55;;;28.40;99.90;;;;;;5099293;28;20081;-73
2022/06/21 12:19:59;;;;;;;21.05;7.22;;;28.80;99.90;;;;;;5079119;28;20032;-73
2022/06/21 12:22:34;;;;;;;22.05;7.57;;;29.00;99.90;;;;;;5082371;28;20020;-73
2022/06/21 12:25:00;;;;;;;17.75;7.38;;;28.90;99.90;;;;;;5082582;28;20056;-73
2022/06/21 12:27:26;;;;;;;26.67;8.40;;;28.80;99.90;;;;;;5120489;27;20021;-73
2022/06/21 12:30:01;;;;;;;20.63;7.20;;;28.70;99.90;;;;;;5084520;28;20020;-73
2022/06/21 12:32:28;;;;;;;25.58;8.57;;;28.60;99.90;;;;;;5098675;28;20023;-73
2022/06/21 12:35:07;;;;;;;15.27;6.53;;;28.40;99.90;;;;;;5086634;28;20036;-73
2022/06/21 12:37:42;;;;;;;29.85;8.93;;;28.40;99.90;;;;;;5095045;28;20020;-73
2022/06/21 12:40:13;;;;;;;18.85;7.28;;;28.10;99.90;;;;;;5089471;28;20445;-73
2022/06/21 12:43:17;;;;;;;23.38;8.55;;;27.90;99.90;;;;;;5095280;28;20393;-73
2022/06/21 12:45:52;;;;;;;18.42;7.88;;;27.70;99.90;;;;;;5085421;28;20024;-73
2022/06/21 12:48:25;;;;;;;15.63;7.32;;;27.80;99.90;;;;;;5093409;28;20021;-73
2022/06/21 12:51:28;;;;;;;20.45;8.50;;;27.80;99.90;;;;;;5098107;28;20031;-73
2022/06/21 12:54:15;;;;;;;20.13;7.55;;;28.10;99.90;;;;;;5078962;28;20077;-73
2022/06/21 12:56:59;;;;;;;23.15;7.32;;;28.60;99.90;;;;;;5081614;28;20129;-73
2022/06/21 12:59:36;;;;;;;21.55;7.78;;;28.70;99.90;;;;;;5081150;28;20094;-73
2022/06/21 13:02:23;;;;;;;20.48;7.32;;;28.70;99.90;;;;;;5082177;28;20020;-73
2022/06/21 13:04:57;;;;;;;22.23;8.05;;;28.70;99.90;;;;;;5087271;28;20020;-73
2022/06/21 13:07:42;;;;;;;19.60;8.20;;;28.80;99.90;;;;;;5091498;28;20497;-73
2022/06/21 13:10:52;;;;;;;19.05;7.43;;;29.10;99.90;;;;;;5085637;28;20028;-73
2022/06/21 13:13:39;;;;;;;22.88;7.38;;;29.40;99.90;;;;;;5079171;28;20126;-73
2022/06/21 13:16:32;;;;;;;20.23;7.43;;;29.20;99.90;;;;;;5091452;28;20024;-74
2022/06/21 13:19:10;;;;;;;24.30;7.60;;;29.30;99.90;;;;;;5092948;28;20025;-74
2022/06/21 13:21:45;;;;;;;21.98;7.22;;;29.20;99.90;;;;;;5095583;28;20024;-73
2022/06/21 13:24:37;;;;;;;20.13;7.22;;;30.00;99.90;;;;;;5096363;28;20020;-73
2022/06/21 13:27:09;;;;;;;16.60;6.88;;;30.30;99.90;;;;;;5083711;28;20025;-74
2022/06/21 13:30:17;;;;;;;15.32;6.55;;;30.50;99.90;;;;;;5079757;28;20024;-75
2022/06/21 13:32:49;;;;;;;16.42;6.90;;;30.20;99.90;;;;;;5079929;28;20021;-73
2022/06/21 13:35:53;;;;;;;19.42;7.88;;;30.00;99.90;;;;;;5081380;28;20111;-73
2022/06/21 13:38:48;;;;;;;16.85;7.07;;;30.00;99.90;;;;;;5083060;28;20020;-74
2022/06/21 13:44:59;;;;;;;18.63;7.22;;;30.20;99.90;;;;;;5085579;28;20027;-73
2022/06/21 13:47:40;;;;;;;16.95;6.90;;;30.70;99.90;;;;;;5119364;27;20506;-74
2022/06/21 13:50:14;;;;;;;21.90;6.68;;;31.00;99.90;;;;;;5124277;27;20036;-74
2022/06/21 13:52:57;;;;;;;16.80;7.15;;;31.50;99.90;;;;;;5094456;28;20020;-74
2022/06/21 13:55:35;;;;;;;15.90;7.13;;;31.90;99.90;;;;;;5084980;28;20028;-75
2022/06/21 13:58:16;;;;;;;24.92;7.35;;;32.10;99.90;;;;;;5095239;28;20024;-77
2022/06/21 14:00:59;;;;;;;17.40;6.47;;;32.30;99.90;;;;;;5085412;28;20013;-76